Dragonfly — WDI2946 — position and weather

sailwx.info

Track history (hours):
 
Tides and Currents Weather Stations Pressure Air Temp Water Temp Dewpoint Dewpoint Depression Visibility Wind Speed Wind Dir Waves Ship Positions

Dragonfly

Owner: Hawkins, Lennie D, Scappoose, OR. More information available from US FCC via Universal Licensing System and Coast Guard Vessel Documentation Center.

Last reported at 2017-Oct-18 20:43 UTC. Time now 2017-Oct-22 17:45 UTC.
Position N 32°49' W 117°19'.

Length 13 m.

Type: Sailing vessel. MMSI: 367683380.

Date/timePositionNaut miles runAvg speedWind from/ knotsBaromVisibWave heightAir tempDewpointWater temp
2017-Oct-18 20:43N 32°49' W 117°19'1 6.4
2017-Oct-18 20:29N 32°51' W 117°19'3 6.2
2017-Oct-18 20:00N 32°53' W 117°21'3 6.1
2017-Oct-18 19:30N 32°56' W 117°22'3 6.0
2017-Oct-18 19:00N 32°59' W 117°23'3 5.7
2017-Oct-18 18:30N 33°02' W 117°24'3 5.7
2017-Oct-18 18:00N 33°05' W 117°25'3 5.4
2017-Oct-18 17:30N 33°07' W 117°25'2 3.3
2017-Oct-18 16:59N 33°08' W 117°23'3 5.9
2017-Oct-18 16:30N 33°11' W 117°24'1 0.1
2017-Oct-17 20:28N 33°13' W 117°24'0 0.0
2017-Oct-17 19:28N 33°13' W 117°24'0 0.0
2017-Oct-17 18:58N 33°13' W 117°24'0 0.0
2017-Oct-17 05:10N 33°13' W 117°24'0 0.0
2017-Oct-17 04:46N 33°13' W 117°24'0 0.0
2017-Oct-17 01:58N 33°13' W 117°24'0 0.0
2017-Oct-17 01:28N 33°13' W 117°24'1 0.0
2017-Oct-15 23:27N 33°12' W 117°24'3 5.9
2017-Oct-15 22:58N 33°09' W 117°23'3 5.8
2017-Oct-15 22:30N 33°07' W 117°22'3 5.4
2017-Oct-15 22:00N 33°04' W 117°21'3 5.5
2017-Oct-15 21:30N 33°01' W 117°21'3 5.2
2017-Oct-15 21:00N 32°59' W 117°21'3 5.0
2017-Oct-15 20:20N 32°55' W 117°20'2 5.9
2017-Oct-15 20:00N 32°53' W 117°20'3 5.9
2017-Oct-15 19:30N 32°50' W 117°20'3 6.0
2017-Oct-15 19:00N 32°47' W 117°19'5 6.0
2017-Oct-15 18:11N 32°43' W 117°18'1 6.0
2017-Oct-15 18:00N 32°42' W 117°18'3 5.4
2017-Oct-15 17:30N 32°39' W 117°17'2 4.7
2017-Oct-15 17:00N 32°38' W 117°15'3 5.7
2017-Oct-15 16:30N 32°41' W 117°14'3 0.2
2017-Oct-15 01:11N 32°41' W 117°10'0 0.0
2017-Oct-15 00:47N 32°41' W 117°10'0 0.0
2017-Oct-15 00:29N 32°41' W 117°10'  
Track history (hours):
 
Tides and Currents Weather Stations Pressure Air Temp Water Temp Dewpoint Dewpoint Depression Visibility Wind Speed Wind Dir Waves Ship Positions

Dragonfly

Owner: Hawkins, Lennie D, Scappoose, OR. More information available from US FCC via Universal Licensing System and Coast Guard Vessel Documentation Center.

Last reported at 2017-Oct-18 20:43 UTC. Time now 2017-Oct-22 17:45 UTC.
Position N 32°49' W 117°19'.

Length 13 m.

Type: Sailing vessel. MMSI: 367683380.

Date/timePositionNaut miles runAvg speedWind from/ knotsBaromVisibWave heightAir tempDewpointWater temp
2017-Oct-18 20:43N 32°49' W 117°19'1 6.4
2017-Oct-18 20:29N 32°51' W 117°19'3 6.2
2017-Oct-18 20:00N 32°53' W 117°21'3 6.1
2017-Oct-18 19:30N 32°56' W 117°22'3 6.0
2017-Oct-18 19:00N 32°59' W 117°23'3 5.7
2017-Oct-18 18:30N 33°02' W 117°24'3 5.7
2017-Oct-18 18:00N 33°05' W 117°25'3 5.4
2017-Oct-18 17:30N 33°07' W 117°25'2 3.3
2017-Oct-18 16:59N 33°08' W 117°23'3 5.9
2017-Oct-18 16:30N 33°11' W 117°24'1 0.1
2017-Oct-17 20:28N 33°13' W 117°24'0 0.0
2017-Oct-17 19:28N 33°13' W 117°24'0 0.0
2017-Oct-17 18:58N 33°13' W 117°24'0 0.0
2017-Oct-17 05:10N 33°13' W 117°24'0 0.0
2017-Oct-17 04:46N 33°13' W 117°24'0 0.0
2017-Oct-17 01:58N 33°13' W 117°24'0 0.0
2017-Oct-17 01:28N 33°13' W 117°24'1 0.0
2017-Oct-15 23:27N 33°12' W 117°24'3 5.9
2017-Oct-15 22:58N 33°09' W 117°23'3 5.8
2017-Oct-15 22:30N 33°07' W 117°22'3 5.4
2017-Oct-15 22:00N 33°04' W 117°21'3 5.5
2017-Oct-15 21:30N 33°01' W 117°21'3 5.2
2017-Oct-15 21:00N 32°59' W 117°21'3 5.0
2017-Oct-15 20:20N 32°55' W 117°20'2 5.9
2017-Oct-15 20:00N 32°53' W 117°20'3 5.9
2017-Oct-15 19:30N 32°50' W 117°20'3 6.0
2017-Oct-15 19:00N 32°47' W 117°19'5 6.0
2017-Oct-15 18:11N 32°43' W 117°18'1 6.0
2017-Oct-15 18:00N 32°42' W 117°18'3 5.4
2017-Oct-15 17:30N 32°39' W 117°17'2 4.7
2017-Oct-15 17:00N 32°38' W 117°15'3 5.7
2017-Oct-15 16:30N 32°41' W 117°14'3 0.2
2017-Oct-15 01:11N 32°41' W 117°10'0 0.0
2017-Oct-15 00:47N 32°41' W 117°10'0 0.0
2017-Oct-15 00:29N 32°41' W 117°10'  

Dump ship's entire track history